Terminal Aerodrome Forecast
Issued by NWS Wilmington, OH

Home | Current Version | Previous Version | Text Only | Print | Product List | Glossary On
Versions: 1 2 3 4 5 6 7 8 9 10 11 12 13
485
FTUS41 KILN 211737
TAFCMH
TAF
KCMH 211737Z 2118/2218 19010KT P6SM SCT120 BKN250
     FM220000 15004KT P6SM SCT120 BKN250
     FM221400 17010KT P6SM BKN150=

USA.gov is the U.S. government's official web portal to all federal, state and local government web resources and services.